Terminal Aerodrome Forecast
Issued by NWS

Home | Current Version | Previous Version | Text Only | Print | Product List | Glossary On
Versions: 1 2 3 4 5 6 7 8 9 10 11 12 13
000
FTUS45 KGGW 260520
TAFSDY
TAF
KSDY 260520Z 2606/2706 28014KT P6SM BKN050
     FM261300 28015G23KT P6SM BKN045
     FM261500 29017KT P6SM BKN030
     FM261700 29016G24KT P6SM SCT035
     FM270000 31009KT P6SM SCT070=

USA.gov is the U.S. government's official web portal to all federal, state and local government web resources and services.